Time;durP1;ratioP1;P1;durP2;ratioP2;P2;SDS_P1;SDS_P2;PMS_P1;PMS_P2;Temp;Humidity;BMP_temperature;BMP_pressure;BME280_temperature;BME280_humidity;BME280_pressure;Samples;Min_cycle;Max_cycle;Signal;HPM_P1;HPM_P2
2023/05/19 00:01:58;;;;;;;4.47;1.90;;;15.00;99.90;;;;;;7386719;19;20147;-76
2023/05/19 00:04:26;;;;;;;3.78;1.80;;;14.90;99.90;;;;;;7383867;19;20149;-76
2023/05/19 00:06:53;;;;;;;3.00;1.80;;;14.80;99.90;;;;;;7386621;19;20139;-76
2023/05/19 00:09:19;;;;;;;6.00;2.10;;;14.90;99.90;;;;;;7384825;19;20967;-77
2023/05/19 00:11:45;;;;;;;4.30;2.03;;;14.80;99.90;;;;;;7386992;19;20961;-76
2023/05/19 00:14:11;;;;;;;4.45;1.92;;;14.70;99.90;;;;;;7386881;19;20150;-76
2023/05/19 00:16:37;;;;;;;4.00;1.52;;;14.80;99.90;;;;;;7388056;19;20181;-77
2023/05/19 00:19:08;;;;;;;4.82;1.90;;;14.80;99.90;;;;;;7385999;19;20495;-77
2023/05/19 00:21:36;;;;;;;5.97;1.35;;;14.70;99.90;;;;;;7386026;19;20565;-76
2023/05/19 00:24:03;;;;;;;5.43;1.70;;;14.70;99.90;;;;;;7385200;19;20158;-77
2023/05/19 00:26:29;;;;;;;4.25;1.52;;;14.70;99.90;;;;;;7387874;19;20171;-77
2023/05/19 00:28:54;;;;;;;4.55;1.58;;;14.70;99.90;;;;;;7386276;19;20142;-77
2023/05/19 00:31:21;;;;;;;4.55;1.80;;;14.70;99.90;;;;;;7386627;19;20152;-77
2023/05/19 00:33:46;;;;;;;4.75;1.55;;;14.70;99.90;;;;;;7387688;19;21446;-78
2023/05/19 00:36:12;;;;;;;3.08;1.40;;;14.80;99.90;;;;;;7376835;19;20582;-77
2023/05/19 00:38:38;;;;;;;4.05;1.60;;;14.60;99.90;;;;;;7387957;19;20433;-77
2023/05/19 00:41:05;;;;;;;4.05;1.80;;;14.70;99.90;;;;;;7383902;19;20127;-77
2023/05/19 00:43:33;;;;;;;4.00;2.03;;;14.70;99.90;;;;;;7381589;19;20496;-77
2023/05/19 00:46:00;;;;;;;7.53;1.90;;;14.60;99.90;;;;;;7385916;19;20145;-77
2023/05/19 00:48:25;;;;;;;4.20;1.55;;;14.60;99.90;;;;;;7386038;19;20142;-78
2023/05/19 00:51:00;;;;;;;3.35;1.60;;;14.70;99.90;;;;;;7384816;19;20453;-76
2023/05/19 00:53:28;;;;;;;4.80;1.67;;;14.70;99.90;;;;;;7385913;19;20609;-76
2023/05/19 00:55:54;;;;;;;3.70;1.77;;;14.60;99.90;;;;;;7384356;19;20142;-76
2023/05/19 00:58:19;;;;;;;5.63;1.80;;;14.50;99.90;;;;;;7384621;19;20451;-77
2023/05/19 01:00:45;;;;;;;5.07;1.70;;;14.50;99.90;;;;;;7381395;19;20142;-77
2023/05/19 01:03:11;;;;;;;4.22;1.70;;;14.50;99.90;;;;;;7383879;19;20135;-78
2023/05/19 01:05:40;;;;;;;4.38;1.55;;;14.40;99.90;;;;;;7383860;19;20127;-78
2023/05/19 01:08:07;;;;;;;2.30;1.65;;;14.50;99.90;;;;;;7386331;19;20242;-77
2023/05/19 01:10:33;;;;;;;4.63;1.50;;;14.40;99.90;;;;;;7383290;19;20146;-77
2023/05/19 01:12:59;;;;;;;4.25;1.33;;;14.40;99.90;;;;;;7386318;19;20205;-76
2023/05/19 01:15:26;;;;;;;3.30;1.50;;;14.40;99.90;;;;;;7391912;19;20142;-77
2023/05/19 01:18:15;;;;;;;3.00;1.50;;;14.40;99.90;;;;;;7390884;19;20127;-77
2023/05/19 01:20:47;;;;;;;4.88;1.80;;;14.50;99.90;;;;;;7388594;19;20146;-76
2023/05/19 01:23:31;;;;;;;3.58;1.48;;;14.40;99.90;;;;;;7390994;19;20146;-77
2023/05/19 01:25:59;;;;;;;2.90;1.50;;;14.30;99.90;;;;;;7390877;19;20126;-78
2023/05/19 01:28:40;;;;;;;3.83;1.50;;;14.30;99.90;;;;;;7390982;19;20135;-76
2023/05/19 01:31:08;;;;;;;3.50;1.50;;;14.30;99.90;;;;;;7394254;19;20524;-77
2023/05/19 01:33:36;;;;;;;6.18;2.03;;;14.40;99.90;;;;;;7394572;19;20135;-77
2023/05/19 01:36:03;;;;;;;4.78;1.55;;;14.40;99.90;;;;;;7392706;19;20156;-78
2023/05/19 01:38:31;;;;;;;4.03;1.60;;;14.30;99.90;;;;;;7391270;19;20139;-78
2023/05/19 01:40:57;;;;;;;5.63;1.90;;;14.30;99.90;;;;;;7390806;19;20164;-77
2023/05/19 01:43:25;;;;;;;4.35;1.70;;;14.30;99.90;;;;;;7392004;19;20481;-78
2023/05/19 01:45:54;;;;;;;4.07;1.83;;;14.30;99.90;;;;;;7392434;19;20135;-78
2023/05/19 01:48:21;;;;;;;5.13;1.80;;;14.40;99.90;;;;;;7389981;19;20142;-79
2023/05/19 01:50:47;;;;;;;4.30;1.77;;;14.40;99.90;;;;;;7388278;19;20135;-77
2023/05/19 01:53:12;;;;;;;3.33;1.58;;;14.40;99.90;;;;;;7393688;19;20568;-77
2023/05/19 01:55:47;;;;;;;4.15;1.67;;;14.40;99.90;;;;;;7392574;19;20453;-76
2023/05/19 01:58:29;;;;;;;2.47;1.80;;;14.30;99.90;;;;;;7394222;19;20155;-78
2023/05/19 02:01:30;;;;;;;2.25;1.38;;;14.40;99.90;;;;;;7392572;19;20155;-77
2023/05/19 02:03:59;;;;;;;3.35;1.63;;;14.40;99.90;;;;;;7391461;19;20142;-77
2023/05/19 02:06:43;;;;;;;2.67;1.40;;;14.40;99.90;;;;;;7387554;19;20200;-77
2023/05/19 02:09:17;;;;;;;5.35;1.90;;;14.40;99.90;;;;;;7390834;19;20138;-77
2023/05/19 02:11:54;;;;;;;4.38;1.80;;;14.50;99.90;;;;;;7389397;19;20147;-77
2023/05/19 02:14:28;;;;;;;3.63;1.88;;;14.50;99.90;;;;;;7390912;19;20147;-77
2023/05/19 02:16:56;;;;;;;7.22;1.80;;;14.30;99.90;;;;;;7390291;19;20142;-78
2023/05/19 02:19:32;;;;;;;5.30;1.80;;;14.30;99.90;;;;;;7382569;19;20173;-76
2023/05/19 02:21:58;;;;;;;4.57;1.73;;;14.40;99.90;;;;;;7389785;19;20146;-78
2023/05/19 02:24:23;;;;;;;4.85;2.17;;;14.30;99.90;;;;;;7388118;19;20157;-77
2023/05/19 02:26:50;;;;;;;4.70;1.88;;;14.30;99.90;;;;;;7389335;19;20142;-77
2023/05/19 02:29:16;;;;;;;5.47;1.90;;;14.30;99.90;;;;;;7387909;19;20621;-77
2023/05/19 02:31:42;;;;;;;4.00;1.88;;;14.20;99.90;;;;;;7389775;19;20435;-78
2023/05/19 02:34:08;;;;;;;4.45;1.80;;;14.20;99.90;;;;;;7390377;19;20273;-77
2023/05/19 02:36:35;;;;;;;2.28;1.45;;;14.20;99.90;;;;;;7389182;19;20591;-77
2023/05/19 02:39:02;;;;;;;3.40;1.70;;;14.10;99.90;;;;;;7389332;19;20163;-77
2023/05/19 02:41:28;;;;;;;3.08;1.63;;;14.20;99.90;;;;;;7387975;19;20138;-76
2023/05/19 02:43:54;;;;;;;3.72;1.98;;;14.20;99.90;;;;;;7388460;19;20160;-77
2023/05/19 02:46:20;;;;;;;3.13;1.60;;;14.20;99.90;;;;;;7388332;19;20197;-77
2023/05/19 02:48:46;;;;;;;4.50;1.70;;;14.10;99.90;;;;;;7389856;19;20158;-77
2023/05/19 02:51:11;;;;;;;2.53;1.60;;;14.10;99.90;;;;;;7387026;19;20242;-77
2023/05/19 02:53:37;;;;;;;6.38;1.83;;;14.00;99.90;;;;;;7390855;19;20131;-77
2023/05/19 02:56:03;;;;;;;4.47;1.87;;;14.00;99.90;;;;;;7389564;19;20138;-77
2023/05/19 02:58:29;;;;;;;4.75;1.95;;;14.00;99.90;;;;;;7385758;19;20474;-77
2023/05/19 03:00:55;;;;;;;2.33;1.40;;;14.00;99.90;;;;;;7390069;19;20135;-76
2023/05/19 03:03:21;;;;;;;5.50;1.97;;;14.10;99.90;;;;;;7386749;19;20130;-78
2023/05/19 03:05:47;;;;;;;6.75;1.85;;;14.00;99.90;;;;;;7389860;19;20139;-78
2023/05/19 03:08:13;;;;;;;6.53;1.90;;;13.90;99.90;;;;;;7386360;19;20284;-76
2023/05/19 03:10:38;;;;;;;3.50;1.70;;;14.00;99.90;;;;;;7388210;19;20169;-77
2023/05/19 03:13:04;;;;;;;6.65;2.22;;;14.00;99.90;;;;;;7387787;19;20135;-78
2023/05/19 03:15:31;;;;;;;5.28;1.88;;;13.90;99.90;;;;;;7390332;19;20126;-77
2023/05/19 03:17:57;;;;;;;4.97;1.63;;;13.90;99.90;;;;;;7389675;19;20130;-77
2023/05/19 03:20:23;;;;;;;3.10;1.50;;;13.90;99.90;;;;;;7386597;19;20150;-77
2023/05/19 03:22:49;;;;;;;2.10;1.50;;;13.90;99.90;;;;;;7388464;19;20790;-78
2023/05/19 03:25:15;;;;;;;3.38;1.52;;;13.80;99.90;;;;;;7385244;19;20150;-78
2023/05/19 03:27:41;;;;;;;2.38;1.48;;;13.80;99.90;;;;;;7389634;19;20221;-77
2023/05/19 03:30:08;;;;;;;3.03;1.33;;;13.90;99.90;;;;;;7386117;19;20150;-77
2023/05/19 03:32:36;;;;;;;4.25;1.58;;;13.90;99.90;;;;;;7385525;19;20138;-77
2023/05/19 03:35:04;;;;;;;5.80;1.60;;;13.90;99.90;;;;;;7386571;19;20495;-78
2023/05/19 03:37:31;;;;;;;6.93;2.10;;;13.80;99.90;;;;;;7386958;19;20244;-76
2023/05/19 03:39:58;;;;;;;4.03;1.55;;;13.90;99.90;;;;;;7389060;19;20236;-78
2023/05/19 03:42:23;;;;;;;2.38;1.42;;;13.90;99.90;;;;;;7386941;19;20150;-78
2023/05/19 03:44:49;;;;;;;3.03;1.67;;;13.90;99.90;;;;;;7388299;19;20567;-78
2023/05/19 03:47:15;;;;;;;3.17;1.63;;;13.90;99.90;;;;;;7386170;19;20134;-78
2023/05/19 03:49:41;;;;;;;4.90;1.80;;;13.80;99.90;;;;;;7385829;19;20178;-77
2023/05/19 03:52:08;;;;;;;3.50;1.80;;;14.00;99.90;;;;;;7386817;19;20654;-77
2023/05/19 03:54:34;;;;;;;4.83;1.87;;;13.80;99.90;;;;;;7387097;19;20621;-78
2023/05/19 03:57:01;;;;;;;4.75;1.98;;;13.70;99.90;;;;;;7389773;19;20131;-78
2023/05/19 03:59:27;;;;;;;5.15;1.63;;;13.80;99.90;;;;;;7386761;19;20134;-77
2023/05/19 04:01:53;;;;;;;2.10;1.52;;;13.80;99.90;;;;;;7384246;19;20130;-77
2023/05/19 04:04:20;;;;;;;5.40;2.03;;;13.80;99.90;;;;;;7385497;19;20156;-77
2023/05/19 04:06:47;;;;;;;3.43;1.87;;;13.70;99.90;;;;;;7385912;19;20750;-78
2023/05/19 04:09:14;;;;;;;4.10;1.80;;;13.90;99.90;;;;;;7386968;19;20174;-78
2023/05/19 04:11:41;;;;;;;6.57;2.42;;;13.80;99.90;;;;;;7387929;19;20142;-78
2023/05/19 04:14:07;;;;;;;4.50;2.10;;;13.80;99.90;;;;;;7386612;19;20151;-77
2023/05/19 04:16:33;;;;;;;5.97;1.83;;;13.80;99.90;;;;;;7386275;19;20143;-77
2023/05/19 04:18:59;;;;;;;3.85;1.80;;;13.80;99.90;;;;;;7382579;19;20159;-77
2023/05/19 04:21:26;;;;;;;3.80;1.80;;;13.80;99.90;;;;;;7385560;19;20995;-77
2023/05/19 04:23:51;;;;;;;6.10;2.20;;;13.70;99.90;;;;;;7384927;19;20173;-78
2023/05/19 04:26:20;;;;;;;3.95;1.90;;;13.70;99.90;;;;;;7385012;19;20483;-76
2023/05/19 04:28:47;;;;;;;3.47;1.50;;;13.70;99.90;;;;;;7386828;19;20146;-78
2023/05/19 04:31:17;;;;;;;5.38;1.90;;;13.80;99.90;;;;;;7384176;19;20153;-78
2023/05/19 04:33:42;;;;;;;3.80;1.83;;;13.80;99.90;;;;;;7385676;19;20135;-78
2023/05/19 04:36:12;;;;;;;4.63;2.08;;;13.80;99.90;;;;;;7385237;19;20905;-78
2023/05/19 04:38:38;;;;;;;2.47;2.00;;;13.70;99.90;;;;;;7387432;19;20229;-79
2023/05/19 04:41:11;;;;;;;4.38;1.65;;;13.80;99.90;;;;;;7385196;19;20140;-77
2023/05/19 04:43:40;;;;;;;5.40;2.03;;;13.80;99.90;;;;;;7386037;19;20148;-76
2023/05/19 04:46:10;;;;;;;8.93;1.90;;;13.80;99.90;;;;;;7385018;19;20157;-77
2023/05/19 04:48:36;;;;;;;5.57;2.10;;;13.80;99.90;;;;;;7391680;19;20135;-77
2023/05/19 04:51:02;;;;;;;4.38;2.20;;;13.80;99.90;;;;;;7390988;19;20131;-77
2023/05/19 04:53:28;;;;;;;5.72;2.00;;;13.90;99.90;;;;;;7390419;19;20594;-77
2023/05/19 04:55:55;;;;;;;5.40;2.08;;;14.10;99.90;;;;;;7393957;19;20273;-77
2023/05/19 04:58:24;;;;;;;4.47;1.90;;;13.90;99.90;;;;;;7392033;19;20157;-76
2023/05/19 05:00:51;;;;;;;4.63;1.70;;;13.90;99.90;;;;;;7394780;19;20157;-78
2023/05/19 05:03:17;;;;;;;3.73;1.87;;;14.00;99.90;;;;;;7390335;19;20146;-77
2023/05/19 05:05:43;;;;;;;7.55;2.00;;;13.90;99.90;;;;;;7390778;19;20138;-78
2023/05/19 05:08:14;;;;;;;4.35;2.00;;;13.80;99.90;;;;;;7391375;19;20134;-78
2023/05/19 05:10:40;;;;;;;2.40;1.60;;;13.70;99.90;;;;;;7391061;19;20166;-78
2023/05/19 05:13:06;;;;;;;5.97;1.75;;;13.60;99.90;;;;;;7388578;19;20151;-78
2023/05/19 05:15:32;;;;;;;3.92;2.08;;;13.60;99.90;;;;;;7389807;19;20162;-78
2023/05/19 05:17:59;;;;;;;5.20;1.70;;;13.60;99.90;;;;;;7393583;19;20239;-78
2023/05/19 05:20:26;;;;;;;5.22;2.00;;;13.60;99.90;;;;;;7389436;19;20184;-77
2023/05/19 05:22:52;;;;;;;6.80;2.27;;;13.70;99.90;;;;;;7392735;19;20154;-79
2023/05/19 05:25:19;;;;;;;3.20;1.88;;;13.70;99.90;;;;;;7385359;19;20158;-78
2023/05/19 05:27:45;;;;;;;4.17;1.80;;;13.70;99.90;;;;;;7391398;19;20158;-78
2023/05/19 05:30:11;;;;;;;3.08;1.67;;;13.70;99.90;;;;;;7390416;19;20206;-79
2023/05/19 05:32:37;;;;;;;6.05;2.00;;;13.80;99.90;;;;;;7390397;19;20154;-79
2023/05/19 05:35:03;;;;;;;5.20;1.83;;;13.80;99.90;;;;;;7392421;19;20155;-79
2023/05/19 05:37:29;;;;;;;3.47;1.93;;;13.90;99.90;;;;;;7387582;19;20488;-80
2023/05/19 05:39:55;;;;;;;3.90;2.00;;;14.00;99.90;;;;;;7389679;19;20142;-80
2023/05/19 05:42:21;;;;;;;5.57;1.90;;;14.00;99.90;;;;;;7390780;19;20179;-80
2023/05/19 05:44:46;;;;;;;4.47;1.75;;;14.10;99.90;;;;;;7389234;19;20151;-78
2023/05/19 05:47:14;;;;;;;5.28;2.35;;;14.00;99.90;;;;;;7389590;19;20135;-76
2023/05/19 05:49:40;;;;;;;8.13;2.37;;;14.00;99.90;;;;;;7388899;19;20155;-77
2023/05/19 05:52:08;;;;;;;4.40;2.00;;;14.00;99.90;;;;;;7387259;19;20162;-78
2023/05/19 05:54:35;;;;;;;3.28;1.83;;;14.00;99.90;;;;;;7388047;19;20142;-79
2023/05/19 05:57:02;;;;;;;3.85;2.10;;;14.00;99.90;;;;;;7390173;19;20173;-78
2023/05/19 05:59:27;;;;;;;4.65;1.85;;;14.10;99.90;;;;;;7388290;19;20135;-79
2023/05/19 06:01:53;;;;;;;4.45;2.13;;;14.20;99.90;;;;;;7390224;19;20230;-77
2023/05/19 06:04:19;;;;;;;4.03;1.92;;;14.30;99.90;;;;;;7389260;19;20158;-78
2023/05/19 06:06:45;;;;;;;2.85;1.70;;;14.30;99.90;;;;;;7390583;19;20145;-76
2023/05/19 06:09:11;;;;;;;3.22;2.20;;;14.40;99.90;;;;;;7389879;19;20214;-79
2023/05/19 06:11:37;;;;;;;8.02;2.28;;;14.40;99.90;;;;;;7390473;19;20161;-77
2023/05/19 06:14:04;;;;;;;4.13;2.63;;;14.40;99.90;;;;;;7391542;19;20504;-77
2023/05/19 06:16:30;;;;;;;6.22;1.92;;;14.60;99.90;;;;;;7391642;19;20170;-76
2023/05/19 06:18:57;;;;;;;5.53;2.47;;;15.00;99.90;;;;;;7390947;19;20696;-75
2023/05/19 06:21:23;;;;;;;4.22;2.60;;;15.60;99.90;;;;;;7392549;19;20138;-75
2023/05/19 06:23:49;;;;;;;4.70;1.95;;;16.40;99.90;;;;;;7391183;19;20218;-77
2023/05/19 06:26:15;;;;;;;5.43;2.13;;;17.80;99.90;;;;;;7390560;19;20150;-77
2023/05/19 06:28:41;;;;;;;9.02;2.70;;;18.80;99.90;;;;;;7392068;19;20162;-76
2023/05/19 06:31:07;;;;;;;9.30;3.00;;;19.30;99.90;;;;;;7389775;19;20194;-78
2023/05/19 06:33:32;;;;;;;7.03;2.60;;;19.70;99.90;;;;;;7390645;19;20482;-77
2023/05/19 06:35:58;;;;;;;4.55;1.98;;;20.20;99.90;;;;;;7389447;19;20142;-77
2023/05/19 06:38:24;;;;;;;6.07;2.33;;;20.20;99.90;;;;;;7389537;19;20143;-76
2023/05/19 06:40:50;;;;;;;3.38;2.20;;;20.00;99.90;;;;;;7387595;19;20171;-76
2023/05/19 06:43:16;;;;;;;5.00;1.98;;;19.80;99.90;;;;;;7390479;19;20526;-77
2023/05/19 06:45:42;;;;;;;5.47;2.60;;;19.30;99.90;;;;;;7389854;19;20137;-77
2023/05/19 06:48:08;;;;;;;4.40;2.22;;;18.40;99.90;;;;;;7390659;19;20217;-75
2023/05/19 06:50:35;;;;;;;7.20;2.10;;;17.40;99.90;;;;;;7392339;19;20482;-75
2023/05/19 06:53:00;;;;;;;4.38;1.67;;;16.60;99.90;;;;;;7389027;19;20138;-77
2023/05/19 06:55:26;;;;;;;7.03;2.28;;;15.90;99.90;;;;;;7385428;19;20151;-78
2023/05/19 06:57:52;;;;;;;4.68;2.15;;;15.60;99.90;;;;;;7387214;19;20210;-76
2023/05/19 07:00:21;;;;;;;5.72;2.60;;;15.60;99.90;;;;;;7386159;19;20150;-77
2023/05/19 07:02:49;;;;;;;4.45;2.15;;;15.80;99.90;;;;;;7388692;19;20146;-78
2023/05/19 07:05:15;;;;;;;3.72;2.03;;;16.10;99.90;;;;;;7383524;19;20146;-77
2023/05/19 07:07:41;;;;;;;7.32;2.33;;;16.20;99.90;;;;;;7387761;19;20237;-76
2023/05/19 07:10:10;;;;;;;5.57;2.40;;;16.10;99.90;;;;;;7386290;19;20160;-75
2023/05/19 07:12:36;;;;;;;8.02;2.55;;;16.10;99.90;;;;;;7384808;19;20150;-76
2023/05/19 07:15:02;;;;;;;9.13;2.22;;;16.00;99.90;;;;;;7390656;19;20141;-77
2023/05/19 07:17:28;;;;;;;7.80;1.92;;;15.80;99.90;;;;;;7383506;19;20147;-77
2023/05/19 07:19:56;;;;;;;4.82;2.47;;;15.70;99.90;;;;;;7386090;19;20196;-77
2023/05/19 07:22:22;;;;;;;6.03;2.42;;;15.50;99.90;;;;;;7389779;19;20138;-75
2023/05/19 07:24:49;;;;;;;5.03;2.45;;;15.50;99.90;;;;;;7385567;19;20473;-77
2023/05/19 07:27:14;;;;;;;5.43;2.72;;;15.40;99.90;;;;;;7390216;19;20134;-76
2023/05/19 07:29:40;;;;;;;3.83;2.20;;;15.30;99.90;;;;;;7385995;19;20127;-78
2023/05/19 07:32:06;;;;;;;5.43;2.42;;;15.30;99.90;;;;;;7388714;19;20149;-76
2023/05/19 07:34:32;;;;;;;4.72;2.67;;;15.40;99.90;;;;;;7387530;19;20135;-76
2023/05/19 07:36:57;;;;;;;4.85;2.47;;;15.50;99.90;;;;;;7388118;19;20154;-77
2023/05/19 07:39:28;;;;;;;7.28;2.30;;;15.60;99.90;;;;;;7384904;19;20351;-76
2023/05/19 07:41:54;;;;;;;4.35;2.40;;;15.70;99.90;;;;;;7384820;19;20147;-75
2023/05/19 07:44:23;;;;;;;6.18;2.05;;;15.80;99.90;;;;;;7383958;19;20246;-77
2023/05/19 07:46:49;;;;;;;5.43;2.17;;;15.80;99.90;;;;;;7388806;19;20130;-77
2023/05/19 07:49:15;;;;;;;3.72;2.22;;;15.70;99.90;;;;;;7389149;19;20126;-77
2023/05/19 07:51:40;;;;;;;5.30;2.88;;;15.80;99.90;;;;;;7388485;19;20148;-78
2023/05/19 07:54:07;;;;;;;6.30;2.47;;;15.90;99.90;;;;;;7392864;19;20157;-77
2023/05/19 07:56:33;;;;;;;5.22;2.45;;;16.10;99.90;;;;;;7386415;19;20270;-77
2023/05/19 07:58:59;;;;;;;3.78;2.47;;;16.00;99.90;;;;;;7386502;19;20610;-78
2023/05/19 08:01:25;;;;;;;4.85;2.47;;;15.90;99.90;;;;;;7386763;19;20130;-76
2023/05/19 08:03:50;;;;;;;3.42;1.95;;;15.90;99.90;;;;;;7386814;19;20134;-78
2023/05/19 08:06:16;;;;;;;3.90;2.10;;;16.00;99.90;;;;;;7386028;19;20146;-77
2023/05/19 08:08:42;;;;;;;5.20;1.95;;;15.80;99.90;;;;;;7387074;19;20184;-76
2023/05/19 08:11:08;;;;;;;6.13;2.08;;;15.80;99.90;;;;;;7385850;19;20143;-76
2023/05/19 08:13:33;;;;;;;3.63;1.83;;;15.80;99.90;;;;;;7387418;19;20150;-76
2023/05/19 08:15:59;;;;;;;4.38;1.85;;;15.80;99.90;;;;;;7386287;19;20146;-77
2023/05/19 08:18:25;;;;;;;6.00;2.83;;;15.90;99.90;;;;;;7385253;19;20139;-77
2023/05/19 08:21:17;;;;;;;3.80;1.80;;;15.90;99.90;;;;;;7382761;19;20621;-80
2023/05/19 08:23:43;;;;;;;4.75;2.15;;;15.80;99.90;;;;;;7385770;19;20243;-77
2023/05/19 08:26:09;;;;;;;6.47;2.22;;;15.80;99.90;;;;;;7385394;19;20143;-76
2023/05/19 08:28:35;;;;;;;2.95;1.88;;;15.80;99.90;;;;;;7391638;19;20146;-78
2023/05/19 08:31:01;;;;;;;5.65;2.22;;;16.00;99.90;;;;;;7384823;19;20647;-77
2023/05/19 08:33:27;;;;;;;4.32;2.20;;;15.90;99.90;;;;;;7384628;19;20142;-79
2023/05/19 08:35:56;;;;;;;4.85;2.22;;;15.90;99.90;;;;;;7386706;19;20610;-77
2023/05/19 08:38:23;;;;;;;6.35;2.97;;;15.90;99.90;;;;;;7387622;19;20142;-76
2023/05/19 08:40:49;;;;;;;5.60;3.10;;;15.90;99.90;;;;;;7384232;19;20223;-77
2023/05/19 08:43:15;;;;;;;4.28;2.00;;;15.90;99.90;;;;;;7384883;19;20151;-77
2023/05/19 08:45:47;;;;;;;11.05;6.65;;;15.90;99.90;;;;;;7381805;19;20142;-75
2023/05/19 08:48:15;;;;;;;5.05;2.70;;;16.00;99.90;;;;;;7386470;19;20158;-76
2023/05/19 08:50:46;;;;;;;5.07;3.42;;;15.90;99.90;;;;;;7386225;19;20147;-76
2023/05/19 08:53:21;;;;;;;5.13;2.25;;;16.00;99.90;;;;;;7387401;19;20158;-75
2023/05/19 08:56:02;;;;;;;5.30;2.42;;;15.90;99.90;;;;;;7387299;19;20602;-78
2023/05/19 08:58:32;;;;;;;5.80;2.03;;;15.90;99.90;;;;;;7384905;19;20143;-79
2023/05/19 09:00:59;;;;;;;5.53;2.28;;;16.00;99.90;;;;;;7387419;19;20146;-77
2023/05/19 09:03:25;;;;;;;4.93;2.67;;;16.00;99.90;;;;;;7384590;19;20162;-77
2023/05/19 09:05:51;;;;;;;6.57;2.60;;;15.90;99.90;;;;;;7387662;19;20229;-76
2023/05/19 09:08:18;;;;;;;2.95;1.88;;;15.90;99.90;;;;;;7385560;19;20151;-76
2023/05/19 09:10:44;;;;;;;5.72;1.75;;;16.00;99.90;;;;;;7388523;19;20147;-76
2023/05/19 09:13:10;;;;;;;4.70;2.20;;;16.10;99.90;;;;;;7385666;19;20620;-76
2023/05/19 09:15:38;;;;;;;6.40;2.25;;;16.10;99.90;;;;;;7386743;19;20142;-74
2023/05/19 09:18:12;;;;;;;4.15;2.40;;;16.10;99.90;;;;;;7394420;19;20135;-76
2023/05/19 09:20:43;;;;;;;8.25;2.55;;;16.10;99.90;;;;;;7383208;19;20670;-76
2023/05/19 09:23:16;;;;;;;4.55;2.28;;;16.00;99.90;;;;;;7385324;19;20138;-76
2023/05/19 09:25:52;;;;;;;3.22;1.55;;;16.10;99.90;;;;;;7388583;19;20153;-76
2023/05/19 09:28:25;;;;;;;6.18;2.92;;;16.30;99.90;;;;;;7386709;19;20158;-75
2023/05/19 09:31:08;;;;;;;10.50;6.75;;;16.20;99.90;;;;;;7386671;19;20145;-76
2023/05/19 09:33:39;;;;;;;3.95;2.17;;;16.40;99.90;;;;;;7387091;19;20164;-77
2023/05/19 09:36:07;;;;;;;4.53;2.08;;;16.30;99.90;;;;;;7390117;19;20155;-77
2023/05/19 09:38:35;;;;;;;5.25;3.03;;;16.30;99.90;;;;;;7389869;19;20138;-77
2023/05/19 09:41:01;;;;;;;5.63;1.92;;;16.10;99.90;;;;;;7391068;19;20135;-76
2023/05/19 09:43:28;;;;;;;4.55;2.03;;;16.00;99.90;;;;;;7390096;19;20151;-76
2023/05/19 09:46:14;;;;;;;4.05;1.92;;;16.00;99.90;;;;;;7391657;19;20598;-76
2023/05/19 09:48:40;;;;;;;5.13;2.53;;;16.00;99.90;;;;;;7390207;19;20173;-75
2023/05/19 09:51:09;;;;;;;3.35;1.80;;;15.90;99.90;;;;;;7390973;19;20583;-77
2023/05/19 09:53:35;;;;;;;6.50;2.63;;;16.10;99.90;;;;;;7393926;19;20150;-76
2023/05/19 09:56:02;;;;;;;4.35;2.63;;;16.10;99.90;;;;;;7390531;19;20153;-76
2023/05/19 09:58:35;;;;;;;6.63;2.13;;;16.30;99.90;;;;;;7390957;19;20606;-76
2023/05/19 10:01:02;;;;;;;5.88;2.20;;;16.40;99.90;;;;;;7391109;19;20150;-76
2023/05/19 10:03:31;;;;;;;5.82;2.55;;;16.40;99.90;;;;;;7390234;19;20157;-76
2023/05/19 10:06:03;;;;;;;5.63;2.00;;;16.50;99.90;;;;;;7390722;19;20264;-75
2023/05/19 10:08:29;;;;;;;4.75;1.98;;;16.50;99.90;;;;;;7390350;19;20214;-75
2023/05/19 10:10:56;;;;;;;6.93;2.20;;;16.60;99.90;;;;;;7389740;19;20142;-76
2023/05/19 10:13:23;;;;;;;3.33;2.08;;;16.60;99.90;;;;;;7389968;19;20138;-76
2023/05/19 10:15:51;;;;;;;4.05;1.85;;;16.60;99.90;;;;;;7389094;19;20147;-75
2023/05/19 10:18:19;;;;;;;7.50;2.22;;;16.40;99.90;;;;;;7392380;19;20139;-76
2023/05/19 10:20:47;;;;;;;3.47;1.75;;;16.40;99.90;;;;;;7387501;19;20151;-76
2023/05/19 10:23:15;;;;;;;5.00;2.00;;;16.30;99.90;;;;;;7391819;19;20150;-76
2023/05/19 10:25:45;;;;;;;4.18;1.95;;;16.30;99.90;;;;;;7387864;19;20174;-75
2023/05/19 10:28:17;;;;;;;5.20;1.80;;;16.30;99.90;;;;;;7392620;19;20134;-76
2023/05/19 10:30:49;;;;;;;5.07;2.00;;;16.30;99.90;;;;;;7389439;19;20147;-75
2023/05/19 10:33:18;;;;;;;4.88;2.28;;;16.40;99.90;;;;;;7393378;19;20138;-75
2023/05/19 10:36:09;;;;;;;7.25;2.22;;;16.30;99.90;;;;;;7393725;19;20554;-75
2023/05/19 10:39:11;;;;;;;4.72;2.28;;;16.40;99.90;;;;;;7395254;19;20207;-74
2023/05/19 10:42:05;;;;;;;7.35;3.47;;;16.30;99.90;;;;;;7388548;19;20146;-76
2023/05/19 10:45:08;;;;;;;5.78;2.33;;;16.40;99.90;;;;;;7386496;19;20158;-75
2023/05/19 10:47:34;;;;;;;3.55;2.00;;;16.50;99.90;;;;;;7389820;19;20261;-75
2023/05/19 10:50:00;;;;;;;4.82;2.40;;;16.40;99.90;;;;;;7389151;19;20492;-76
2023/05/19 10:52:28;;;;;;;5.68;2.33;;;16.50;99.90;;;;;;7390886;19;20143;-75
2023/05/19 10:54:54;;;;;;;4.72;2.80;;;16.40;99.90;;;;;;7387653;19;20619;-74
2023/05/19 10:57:27;;;;;;;7.70;2.40;;;16.50;99.90;;;;;;7387360;19;20151;-76
2023/05/19 10:59:56;;;;;;;5.95;2.30;;;16.40;99.90;;;;;;7390445;19;20149;-75
2023/05/19 11:02:54;;;;;;;3.17;1.90;;;16.10;99.90;;;;;;7389716;19;20540;-74
2023/05/19 11:05:27;;;;;;;3.88;2.28;;;16.10;99.90;;;;;;7384443;19;20146;-75
2023/05/19 11:08:09;;;;;;;4.68;2.28;;;16.20;99.90;;;;;;7386840;19;20583;-76
2023/05/19 11:10:36;;;;;;;5.05;1.95;;;16.30;99.90;;;;;;7387894;19;20154;-76
2023/05/19 11:13:03;;;;;;;2.50;1.77;;;16.10;99.90;;;;;;7388118;19;20142;-74
2023/05/19 11:15:35;;;;;;;4.30;1.98;;;16.10;99.90;;;;;;7385196;19;20166;-74
2023/05/19 11:18:01;;;;;;;3.28;1.92;;;16.00;99.90;;;;;;7387778;19;20186;-75
2023/05/19 11:20:28;;;;;;;5.13;2.22;;;16.30;99.90;;;;;;7382936;19;20204;-76
2023/05/19 11:23:07;;;;;;;3.30;1.88;;;16.30;99.90;;;;;;7387760;19;20157;-75
2023/05/19 11:25:44;;;;;;;5.35;2.80;;;16.40;99.90;;;;;;7384575;19;20632;-76
2023/05/19 11:28:13;;;;;;;7.28;2.70;;;16.50;99.90;;;;;;7387389;19;20149;-77
2023/05/19 11:30:42;;;;;;;3.97;1.83;;;16.30;99.90;;;;;;7389184;19;20135;-75
2023/05/19 11:33:08;;;;;;;4.68;1.77;;;16.30;99.90;;;;;;7386563;19;20172;-77
2023/05/19 11:35:35;;;;;;;5.65;1.63;;;16.30;99.90;;;;;;7387213;19;20150;-75
2023/05/19 11:38:02;;;;;;;4.30;2.05;;;16.40;99.90;;;;;;7386872;19;20156;-76
2023/05/19 11:40:29;;;;;;;5.90;2.70;;;16.50;99.90;;;;;;7385353;19;20143;-76
2023/05/19 11:42:55;;;;;;;5.57;2.65;;;16.40;99.90;;;;;;7387008;19;20475;-75
2023/05/19 11:45:25;;;;;;;3.90;2.15;;;16.30;99.90;;;;;;7385931;19;20134;-77
2023/05/19 11:47:51;;;;;;;5.28;2.22;;;16.60;99.90;;;;;;7389103;19;20146;-76
2023/05/19 11:50:17;;;;;;;3.50;2.13;;;16.40;99.90;;;;;;7383987;19;20126;-78
2023/05/19 11:52:47;;;;;;;4.28;2.08;;;16.50;99.90;;;;;;7382652;19;20138;-75
2023/05/19 11:55:17;;;;;;;3.28;2.35;;;16.50;99.90;;;;;;7377662;19;21938;-75
2023/05/19 11:58:02;;;;;;;5.78;2.50;;;16.50;99.90;;;;;;7385894;19;20147;-74
2023/05/19 12:00:30;;;;;;;9.38;3.85;;;16.50;99.90;;;;;;7382933;19;20467;-75
2023/05/19 12:02:56;;;;;;;8.75;2.75;;;16.50;99.90;;;;;;7380933;19;20130;-76
2023/05/19 12:05:27;;;;;;;6.70;2.50;;;16.50;99.90;;;;;;7382822;19;20131;-75
2023/05/19 12:07:53;;;;;;;6.45;2.10;;;16.60;99.90;;;;;;7379722;19;20745;-75
2023/05/19 12:10:40;;;;;;;5.05;2.25;;;16.60;99.90;;;;;;7383884;19;20130;-74
2023/05/19 12:13:09;;;;;;;4.97;1.98;;;16.50;99.90;;;;;;7382956;19;20127;-73
2023/05/19 12:15:35;;;;;;;3.80;2.42;;;16.50;99.90;;;;;;7379419;19;20877;-73
2023/05/19 12:18:01;;;;;;;4.90;2.40;;;16.30;99.90;;;;;;7385028;19;20149;-73
2023/05/19 12:20:34;;;;;;;2.90;2.08;;;16.40;99.90;;;;;;7381434;19;20278;-74
2023/05/19 12:23:03;;;;;;;3.13;1.80;;;16.50;99.90;;;;;;7387617;19;20496;-75
2023/05/19 12:25:30;;;;;;;3.65;2.08;;;16.60;99.90;;;;;;7384286;19;20440;-75
2023/05/19 12:28:03;;;;;;;4.07;2.10;;;16.60;99.90;;;;;;7385700;19;20490;-76
2023/05/19 12:30:30;;;;;;;3.03;2.05;;;16.60;99.90;;;;;;7385634;19;20165;-75
2023/05/19 12:32:57;;;;;;;4.55;2.05;;;16.70;99.90;;;;;;7384832;19;20135;-75
2023/05/19 12:35:34;;;;;;;4.38;1.95;;;16.60;99.90;;;;;;7385860;19;20135;-74
2023/05/19 12:38:06;;;;;;;5.10;2.20;;;16.70;99.90;;;;;;7386769;19;20166;-75
2023/05/19 12:40:38;;;;;;;4.20;2.28;;;16.70;99.90;;;;;;7385331;19;20467;-75
2023/05/19 12:43:06;;;;;;;4.15;2.22;;;16.70;99.90;;;;;;7388417;19;20501;-74
2023/05/19 12:45:35;;;;;;;3.03;1.65;;;16.80;99.90;;;;;;7381355;19;20559;-74
2023/05/19 12:48:04;;;;;;;4.35;2.17;;;16.80;99.90;;;;;;7386570;19;20157;-74
2023/05/19 12:50:30;;;;;;;6.07;2.50;;;16.90;99.90;;;;;;7386585;19;20155;-74
2023/05/19 12:52:58;;;;;;;5.60;2.30;;;16.90;99.90;;;;;;7384896;19;20139;-74
2023/05/19 12:55:24;;;;;;;5.07;2.60;;;16.80;99.90;;;;;;7383555;19;20138;-75